createdAt,value
2017-12-21T00:02:42.392Z,102630
2017-12-21T00:05:10.588Z,102623
2017-12-21T00:07:38.761Z,102619
2017-12-21T00:10:07.024Z,102631
2017-12-21T00:12:35.135Z,102644
2017-12-21T00:15:03.272Z,102641
2017-12-21T00:17:31.465Z,102627
2017-12-21T00:19:59.588Z,102620
2017-12-21T00:22:41.060Z,102615
2017-12-21T00:25:09.215Z,102611
2017-12-21T00:27:37.345Z,102610
2017-12-21T00:30:05.595Z,102612
2017-12-21T00:32:35.285Z,102612
2017-12-21T00:35:03.434Z,102609
2017-12-21T00:37:31.651Z,102614
2017-12-21T00:40:00.691Z,102619
2017-12-21T00:42:28.843Z,102632
2017-12-21T00:44:56.971Z,102624
2017-12-21T00:50:40.768Z,102639
2017-12-21T00:53:10.164Z,102640
2017-12-21T00:55:39.049Z,102646
2017-12-21T00:58:08.049Z,102654
2017-12-21T01:00:37.947Z,102646
2017-12-21T01:03:06.136Z,102646
2017-12-21T01:05:35.076Z,102639
2017-12-21T01:08:03.231Z,102641
2017-12-21T01:10:31.306Z,102639
2017-12-21T01:12:59.909Z,102629
2017-12-21T01:18:43.280Z,102641
2017-12-21T01:21:11.391Z,102629
2017-12-21T01:23:39.527Z,102645
2017-12-21T01:26:07.632Z,102651
2017-12-21T01:28:36.786Z,102655
2017-12-21T01:31:04.951Z,102656
2017-12-21T01:33:33.976Z,102657
2017-12-21T01:36:02.189Z,102653
2017-12-21T01:38:30.307Z,102651
2017-12-21T01:40:58.567Z,102651
2017-12-21T01:43:26.816Z,102653
2017-12-21T01:45:54.933Z,102651
2017-12-21T01:48:23.429Z,102652
2017-12-21T01:50:51.811Z,102653
2017-12-21T01:53:20.822Z,102651
2017-12-21T01:55:49.711Z,102651
2017-12-21T01:58:18.565Z,102653
2017-12-21T02:00:47.875Z,102646
2017-12-21T02:03:15.963Z,102652
2017-12-21T02:05:45.228Z,102656
2017-12-21T02:08:13.315Z,102648
2017-12-21T02:10:41.484Z,102656
2017-12-21T02:13:09.627Z,102651
2017-12-21T02:15:37.744Z,102646
2017-12-21T02:18:05.855Z,102642
2017-12-21T02:20:34.215Z,102638
2017-12-21T02:23:03.159Z,102635
2017-12-21T02:25:31.259Z,102650
2017-12-21T02:27:59.632Z,102638
2017-12-21T02:30:27.868Z,102632
2017-12-21T02:32:56.259Z,102634
2017-12-21T02:35:24.540Z,102630
2017-12-21T02:37:52.619Z,102626
2017-12-21T02:40:20.783Z,102632
2017-12-21T02:42:48.980Z,102628
2017-12-21T02:45:17.992Z,102630
2017-12-21T02:47:46.260Z,102624
2017-12-21T02:50:14.344Z,102617
2017-12-21T02:52:42.475Z,102631
2017-12-21T02:55:10.668Z,102629
2017-12-21T02:57:38.807Z,102629
2017-12-21T03:00:07.303Z,102628
2017-12-21T03:02:35.432Z,102625
2017-12-21T03:05:04.282Z,102623
2017-12-21T03:07:32.572Z,102616
2017-12-21T03:10:00.803Z,102621
2017-12-21T03:12:28.929Z,102628
2017-12-21T03:14:57.064Z,102619
2017-12-21T03:17:25.206Z,102618
2017-12-21T03:19:53.667Z,102612
2017-12-21T03:22:22.564Z,102616
2017-12-21T03:24:51.480Z,102617
2017-12-21T03:27:19.618Z,102619
2017-12-21T03:29:48.479Z,102614
2017-12-21T03:32:16.671Z,102613
2017-12-21T03:34:44.795Z,102622
2017-12-21T03:37:13.004Z,102618
2017-12-21T03:39:42.009Z,102611
2017-12-21T03:42:10.403Z,102619
2017-12-21T03:44:39.896Z,102616
2017-12-21T03:47:09.112Z,102618
2017-12-21T03:49:37.967Z,102615
2017-12-21T03:52:06.498Z,102599
2017-12-21T03:54:35.366Z,102603
2017-12-21T03:57:03.546Z,102594
2017-12-21T03:59:32.452Z,102593
2017-12-21T04:02:02.303Z,102590
2017-12-21T04:04:30.471Z,102583
2017-12-21T04:06:58.615Z,102578
2017-12-21T04:09:27.457Z,102572
2017-12-21T04:11:55.615Z,102573
2017-12-21T04:14:23.833Z,102574
2017-12-21T04:16:51.953Z,102572
2017-12-21T04:19:20.077Z,102573
2017-12-21T04:21:49.031Z,102567
2017-12-21T04:24:17.212Z,102566
2017-12-21T04:26:45.364Z,102565
2017-12-21T04:29:13.525Z,102562
2017-12-21T04:31:41.783Z,102573
2017-12-21T04:34:10.679Z,102574
2017-12-21T04:36:38.843Z,102570
2017-12-21T04:39:07.804Z,102569
2017-12-21T04:41:35.943Z,102577
2017-12-21T04:44:04.168Z,102577
2017-12-21T04:46:33.207Z,102587
2017-12-21T04:49:01.387Z,102579
2017-12-21T04:51:29.514Z,102585
2017-12-21T04:53:58.459Z,102579
2017-12-21T04:56:26.640Z,102583
2017-12-21T04:58:54.867Z,102577
2017-12-21T05:01:23.788Z,102584
2017-12-21T05:03:51.858Z,102577
2017-12-21T05:06:20.108Z,102575
2017-12-21T05:08:48.963Z,102579
2017-12-21T05:11:17.080Z,102575
2017-12-21T05:13:45.947Z,102580
2017-12-21T05:16:14.093Z,102578
2017-12-21T05:18:42.207Z,102588
2017-12-21T05:21:11.065Z,102578
2017-12-21T05:23:39.218Z,102581
2017-12-21T05:26:07.303Z,102582
2017-12-21T05:28:35.455Z,102584
2017-12-21T05:31:03.539Z,102578
2017-12-21T05:33:31.703Z,102585
2017-12-21T05:35:59.795Z,102586
2017-12-21T05:38:28.127Z,102581
2017-12-21T05:40:57.122Z,102587
2017-12-21T05:43:25.194Z,102581
2017-12-21T05:45:53.320Z,102578
2017-12-21T05:48:21.459Z,102587
2017-12-21T05:50:49.595Z,102588
2017-12-21T05:53:18.455Z,102589
2017-12-21T05:55:46.631Z,102585
2017-12-21T05:58:14.737Z,102586
2017-12-21T06:00:43.659Z,102580
2017-12-21T06:03:11.811Z,102587
2017-12-21T06:05:39.941Z,102590
2017-12-21T06:08:08.216Z,102584
2017-12-21T06:10:36.351Z,102587
2017-12-21T06:13:04.492Z,102590
2017-12-21T06:15:33.386Z,102591
2017-12-21T06:18:02.228Z,102588
2017-12-21T06:20:30.400Z,102585
2017-12-21T06:22:58.539Z,102592
2017-12-21T06:25:26.647Z,102587
2017-12-21T06:27:54.851Z,102589
2017-12-21T06:30:22.952Z,102589
2017-12-21T06:32:51.152Z,102587
2017-12-21T06:35:19.324Z,102590
2017-12-21T06:37:47.836Z,102594
2017-12-21T06:40:15.996Z,102589
2017-12-21T06:42:44.232Z,102596
2017-12-21T06:45:13.083Z,102592
2017-12-21T06:47:41.229Z,102586
2017-12-21T06:50:09.477Z,102595
2017-12-21T06:52:37.603Z,102597
2017-12-21T06:55:05.700Z,102602
2017-12-21T06:57:33.853Z,102601
2017-12-21T07:00:01.949Z,102606
2017-12-21T07:02:30.866Z,102601
2017-12-21T07:04:58.963Z,102603
2017-12-21T07:07:27.107Z,102608
2017-12-21T07:09:55.243Z,102604
2017-12-21T07:12:23.390Z,102610
2017-12-21T07:14:51.524Z,102598
2017-12-21T07:17:20.371Z,102599
2017-12-21T07:19:48.514Z,102602
2017-12-21T07:22:16.639Z,102604
2017-12-21T07:24:44.827Z,102600
2017-12-21T07:27:13.716Z,102604
2017-12-21T07:29:42.617Z,102612
2017-12-21T07:32:10.780Z,102604
2017-12-21T07:34:39.798Z,102595
2017-12-21T07:37:07.964Z,102604
2017-12-21T07:39:36.054Z,102608
2017-12-21T07:42:06.906Z,102607
2017-12-21T07:44:34.998Z,102608
2017-12-21T07:47:03.151Z,102613
2017-12-21T07:49:31.228Z,102611
2017-12-21T07:51:59.388Z,102612
2017-12-21T07:54:28.395Z,102610
2017-12-21T07:56:56.556Z,102626
2017-12-21T07:59:24.723Z,102627
2017-12-21T08:01:52.856Z,102627
2017-12-21T08:04:21.733Z,102627
2017-12-21T08:06:49.950Z,102623
2017-12-21T08:09:18.016Z,102630
2017-12-21T08:11:46.186Z,102629
2017-12-21T08:14:15.056Z,102638
2017-12-21T08:16:43.911Z,102622
2017-12-21T08:19:12.006Z,102628
2017-12-21T08:21:40.146Z,102627
2017-12-21T08:24:08.231Z,102626
2017-12-21T08:26:36.419Z,102633
2017-12-21T08:29:04.530Z,102627
2017-12-21T08:31:32.635Z,102627
2017-12-21T08:34:01.015Z,102627
2017-12-21T08:36:29.222Z,102633
2017-12-21T08:38:57.359Z,102627
2017-12-21T08:41:25.553Z,102630
2017-12-21T08:43:53.680Z,102630
2017-12-21T08:46:22.748Z,102622
2017-12-21T08:48:50.832Z,102621
2017-12-21T08:51:19.679Z,102626
2017-12-21T08:53:47.846Z,102629
2017-12-21T08:56:15.978Z,102635
2017-12-21T08:58:44.107Z,102633
2017-12-21T09:01:12.910Z,102620
2017-12-21T09:03:41.069Z,102623
2017-12-21T09:06:09.205Z,102628
2017-12-21T09:08:37.323Z,102631
2017-12-21T09:11:05.479Z,102630
2017-12-21T09:13:33.565Z,102639
2017-12-21T09:16:02.505Z,102638
2017-12-21T09:18:30.592Z,102643
2017-12-21T09:20:58.949Z,102632
2017-12-21T09:23:27.860Z,102641
2017-12-21T09:25:56.012Z,102646
2017-12-21T09:28:24.908Z,102646
2017-12-21T09:30:53.211Z,102639
2017-12-21T09:33:21.328Z,102641
2017-12-21T09:35:49.412Z,102643
2017-12-21T09:38:18.342Z,102645
2017-12-21T09:40:46.428Z,102645
2017-12-21T09:43:14.563Z,102645
2017-12-21T09:45:42.679Z,102649
2017-12-21T09:48:10.768Z,102654
2017-12-21T09:50:38.920Z,102650
2017-12-21T09:53:07.011Z,102659
2017-12-21T09:55:35.099Z,102648
2017-12-21T09:58:03.264Z,102650
2017-12-21T10:00:31.616Z,102645
2017-12-21T10:02:59.757Z,102650
2017-12-21T10:05:27.918Z,102654
2017-12-21T10:07:56.763Z,102651
2017-12-21T10:10:24.915Z,102656
2017-12-21T10:12:53.008Z,102651
2017-12-21T10:15:22.052Z,102657
2017-12-21T10:17:50.926Z,102647
2017-12-21T10:20:19.765Z,102643
2017-12-21T10:22:47.882Z,102638
2017-12-21T10:25:16.407Z,102632
2017-12-21T10:27:44.565Z,102645
2017-12-21T10:30:13.457Z,102643
2017-12-21T10:32:42.401Z,102631
2017-12-21T10:35:10.494Z,102632
2017-12-21T10:37:38.684Z,102633
2017-12-21T10:40:08.566Z,102628
2017-12-21T10:42:36.672Z,102624
2017-12-21T10:45:05.769Z,102619
2017-12-21T10:47:36.556Z,102629
2017-12-21T10:50:04.736Z,102621
2017-12-21T10:52:32.907Z,102611
2017-12-21T10:55:00.996Z,102615
2017-12-21T10:57:29.068Z,102612
2017-12-21T10:59:57.197Z,102612
2017-12-21T11:02:25.325Z,102604
2017-12-21T11:04:53.413Z,102615
2017-12-21T11:07:22.281Z,102617
2017-12-21T11:09:50.363Z,102621
2017-12-21T11:12:19.263Z,102610
2017-12-21T11:14:48.119Z,102615
2017-12-21T11:17:16.308Z,102614
2017-12-21T11:19:44.380Z,102608
2017-12-21T11:22:12.551Z,102615
2017-12-21T11:24:40.679Z,102605
2017-12-21T11:27:09.804Z,102606
2017-12-21T11:29:38.852Z,102598
2017-12-21T11:32:07.112Z,102599
2017-12-21T11:34:36.228Z,102587
2017-12-21T11:37:04.716Z,102590
2017-12-21T11:39:32.853Z,102584
2017-12-21T11:42:00.938Z,102588
2017-12-21T11:44:29.797Z,102583
2017-12-21T11:46:58.867Z,102584
2017-12-21T11:49:27.010Z,102578
2017-12-21T11:51:55.912Z,102578
2017-12-21T11:54:24.053Z,102580
2017-12-21T11:56:52.236Z,102574
2017-12-21T11:59:21.201Z,102582
2017-12-21T12:01:49.326Z,102587
2017-12-21T12:04:17.462Z,102584
2017-12-21T12:06:45.616Z,102575
2017-12-21T12:09:13.862Z,102571
2017-12-21T12:11:41.959Z,102578
2017-12-21T12:14:10.064Z,102576
2017-12-21T12:16:38.913Z,102581
2017-12-21T12:19:07.095Z,102585
2017-12-21T12:21:35.240Z,102577
2017-12-21T12:24:03.401Z,102574
2017-12-21T12:26:31.501Z,102576
2017-12-21T12:28:59.631Z,102573
2017-12-21T12:31:27.727Z,102579
2017-12-21T12:33:56.028Z,102578
2017-12-21T12:36:24.108Z,102580
2017-12-21T12:38:52.216Z,102584
2017-12-21T12:41:21.120Z,102585
2017-12-21T12:43:49.995Z,102569
2017-12-21T12:46:18.864Z,102570
2017-12-21T12:48:47.029Z,102564
2017-12-21T12:51:15.149Z,102563
2017-12-21T12:53:43.348Z,102555
2017-12-21T12:56:11.517Z,102552
2017-12-21T12:58:39.633Z,102552
2017-12-21T13:01:07.744Z,102545
2017-12-21T13:03:36.644Z,102554
2017-12-21T13:06:05.055Z,102543
2017-12-21T13:08:33.171Z,102551
2017-12-21T13:11:02.040Z,102544
2017-12-21T13:13:30.193Z,102544
2017-12-21T13:15:59.225Z,102538
2017-12-21T13:18:28.128Z,102529
2017-12-21T13:20:56.980Z,102529
2017-12-21T13:23:25.072Z,102530
2017-12-21T13:25:53.210Z,102524
2017-12-21T13:28:21.280Z,102528
2017-12-21T13:30:49.423Z,102533
2017-12-21T13:33:18.580Z,102532
2017-12-21T13:35:46.788Z,102532
2017-12-21T13:38:14.985Z,102532
2017-12-21T13:40:43.266Z,102525
2017-12-21T13:43:11.408Z,102533
2017-12-21T13:45:40.311Z,102540
2017-12-21T13:48:08.793Z,102541
2017-12-21T13:50:36.941Z,102544
2017-12-21T13:53:05.903Z,102528
2017-12-21T13:55:34.037Z,102531
2017-12-21T13:58:02.140Z,102524
2017-12-21T14:00:30.311Z,102518
2017-12-21T14:02:58.395Z,102517
2017-12-21T14:05:26.487Z,102520
2017-12-21T14:07:54.804Z,102510
2017-12-21T14:10:22.899Z,102509
2017-12-21T14:12:51.059Z,102507
2017-12-21T14:15:19.189Z,102504
2017-12-21T14:17:47.307Z,102519
2017-12-21T14:20:16.385Z,102512
2017-12-21T14:22:44.531Z,102507
2017-12-21T14:25:12.621Z,102510
2017-12-21T14:27:41.809Z,102510
2017-12-21T14:30:10.664Z,102526
2017-12-21T14:32:38.768Z,102534
2017-12-21T14:35:06.919Z,102538
2017-12-21T14:37:35.040Z,102548
2017-12-21T14:40:03.213Z,102555
2017-12-21T14:42:31.298Z,102555
2017-12-21T14:44:59.440Z,102545
2017-12-21T14:47:28.340Z,102555
2017-12-21T14:49:57.305Z,102558
2017-12-21T14:52:25.357Z,102546
2017-12-21T14:54:53.488Z,102547
2017-12-21T14:57:21.699Z,102552
2017-12-21T14:59:49.848Z,102552
2017-12-21T15:02:18.035Z,102565
2017-12-21T15:04:46.146Z,102567
2017-12-21T15:07:14.291Z,102574
2017-12-21T15:09:42.491Z,102572
2017-12-21T15:12:10.602Z,102574
2017-12-21T15:14:38.754Z,102573
2017-12-21T15:17:06.875Z,102574
2017-12-21T15:19:35.043Z,102573
2017-12-21T15:22:03.382Z,102568
2017-12-21T15:24:32.433Z,102575
2017-12-21T15:27:01.528Z,102574
2017-12-21T15:29:29.629Z,102576
2017-12-21T15:31:57.923Z,102577
2017-12-21T15:34:26.808Z,102574
2017-12-21T15:36:55.716Z,102578
2017-12-21T15:39:23.835Z,102576
2017-12-21T15:41:52.100Z,102579
2017-12-21T15:44:20.230Z,102591
2017-12-21T15:46:49.155Z,102594
2017-12-21T15:49:17.247Z,102594
2017-12-21T15:51:45.431Z,102597
2017-12-21T15:54:14.355Z,102594
2017-12-21T15:56:43.242Z,102593
2017-12-21T15:59:11.372Z,102595
2017-12-21T16:01:39.506Z,102599
2017-12-21T16:04:07.660Z,102606
2017-12-21T16:06:35.831Z,102607
2017-12-21T16:09:04.001Z,102617
2017-12-21T16:11:32.139Z,102620
2017-12-21T16:14:00.215Z,102616
2017-12-21T16:16:28.351Z,102614
2017-12-21T16:18:58.369Z,102614
2017-12-21T16:21:26.592Z,102620
2017-12-21T16:23:55.627Z,102625
2017-12-21T16:26:24.500Z,102624
2017-12-21T16:28:52.667Z,102620
2017-12-21T16:31:20.789Z,102627
2017-12-21T16:33:49.819Z,102624
2017-12-21T16:36:17.939Z,102631
2017-12-21T16:38:46.908Z,102632
2017-12-21T16:41:15.005Z,102623
2017-12-21T16:43:43.127Z,102627
2017-12-21T16:46:11.216Z,102631
2017-12-21T16:48:40.104Z,102626
2017-12-21T16:51:10.739Z,102628
2017-12-21T16:53:38.851Z,102638
2017-12-21T16:56:07.974Z,102644
2017-12-21T16:58:36.112Z,102643
2017-12-21T17:01:04.352Z,102655
2017-12-21T17:03:33.368Z,102656
2017-12-21T17:06:02.297Z,102651
2017-12-21T17:08:31.150Z,102652
2017-12-21T17:11:00.012Z,102645
2017-12-21T17:13:28.237Z,102652
2017-12-21T17:15:56.335Z,102647
2017-12-21T17:18:24.502Z,102649
2017-12-21T17:20:52.684Z,102649
2017-12-21T17:23:21.365Z,102645
2017-12-21T17:25:49.576Z,102645
2017-12-21T17:28:17.716Z,102645
2017-12-21T17:30:45.805Z,102647
2017-12-21T17:33:13.952Z,102647
2017-12-21T17:35:42.314Z,102658
2017-12-21T17:38:10.494Z,102656
2017-12-21T17:40:38.586Z,102657
2017-12-21T17:43:06.755Z,102662
2017-12-21T17:45:34.884Z,102663
2017-12-21T17:48:03.792Z,102664
2017-12-21T17:50:32.657Z,102662
2017-12-21T17:53:00.879Z,102659
2017-12-21T17:55:29.012Z,102665
2017-12-21T17:57:58.000Z,102660
2017-12-21T18:00:26.131Z,102653
2017-12-21T18:02:54.244Z,102654
2017-12-21T18:05:22.392Z,102656
2017-12-21T18:07:51.671Z,102663
2017-12-21T18:10:19.847Z,102655
2017-12-21T18:12:47.947Z,102655
2017-12-21T18:15:16.023Z,102655
2017-12-21T18:17:44.160Z,102651
2017-12-21T18:20:12.295Z,102649
2017-12-21T18:22:41.214Z,102654
2017-12-21T18:25:09.701Z,102661
2017-12-21T18:27:38.089Z,102649
2017-12-21T18:30:06.192Z,102647
2017-12-21T18:32:52.430Z,102650
2017-12-21T18:35:21.568Z,102662
2017-12-21T18:37:50.252Z,102661
2017-12-21T18:40:18.336Z,102662
2017-12-21T18:42:46.788Z,102670
2017-12-21T18:45:14.947Z,102666
2017-12-21T18:47:43.149Z,102680
2017-12-21T18:50:11.377Z,102679
2017-12-21T18:52:40.327Z,102672
2017-12-21T18:55:08.464Z,102667
2017-12-21T18:57:36.584Z,102673
2017-12-21T19:00:04.732Z,102670
2017-12-21T19:02:32.900Z,102683
2017-12-21T19:07:35.787Z,102680
2017-12-21T19:10:03.931Z,102679
2017-12-21T19:12:32.803Z,102678
2017-12-21T19:15:00.877Z,102677
2017-12-21T19:17:29.025Z,102678
2017-12-21T19:19:57.474Z,102683
2017-12-21T19:22:25.663Z,102675
2017-12-21T19:27:41.222Z,102674
2017-12-21T19:30:10.400Z,102673
2017-12-21T19:32:38.533Z,102671
2017-12-21T19:35:06.684Z,102667
2017-12-21T19:37:35.549Z,102668
2017-12-21T19:40:03.692Z,102662
2017-12-21T19:42:31.859Z,102667
2017-12-21T19:44:59.991Z,102659
2017-12-21T19:47:28.859Z,102666
2017-12-21T19:49:57.016Z,102662
2017-12-21T19:52:25.127Z,102665
2017-12-21T19:54:54.031Z,102659
2017-12-21T19:57:22.172Z,102656
2017-12-21T19:59:50.391Z,102646
2017-12-21T20:02:18.500Z,102649
2017-12-21T20:07:47.854Z,102655
2017-12-21T20:10:16.869Z,102646
2017-12-21T20:12:45.002Z,102653
2017-12-21T20:15:13.213Z,102649
2017-12-21T20:17:42.082Z,102644
2017-12-21T20:20:10.936Z,102640
2017-12-21T20:22:39.103Z,102630
2017-12-21T20:25:07.424Z,102641
2017-12-21T20:27:35.560Z,102643
2017-12-21T20:30:03.767Z,102650
2017-12-21T20:32:32.688Z,102649
2017-12-21T20:35:00.894Z,102644
2017-12-21T20:37:29.025Z,102641
2017-12-21T20:39:58.108Z,102643
2017-12-21T20:42:26.511Z,102644
2017-12-21T20:44:54.661Z,102639
2017-12-21T20:47:24.595Z,102638
2017-12-21T20:49:52.777Z,102645
2017-12-21T20:52:20.912Z,102652
2017-12-21T20:54:49.014Z,102649
2017-12-21T20:57:18.024Z,102651
2017-12-21T20:59:46.123Z,102653
2017-12-21T21:02:14.302Z,102649
2017-12-21T21:04:42.437Z,102652
2017-12-21T21:07:10.624Z,102656
2017-12-21T21:09:39.650Z,102656
2017-12-21T21:12:07.727Z,102660
2017-12-21T21:14:36.013Z,102659
2017-12-21T21:17:04.107Z,102664
2017-12-21T21:19:33.021Z,102666
2017-12-21T21:22:01.102Z,102643
2017-12-21T21:24:29.323Z,102653
2017-12-21T21:26:57.467Z,102652
2017-12-21T21:29:25.549Z,102653
2017-12-21T21:31:53.760Z,102647
2017-12-21T21:34:22.756Z,102654
2017-12-21T21:36:51.626Z,102647
2017-12-21T21:39:19.904Z,102652
2017-12-21T21:41:48.144Z,102653
2017-12-21T21:44:16.513Z,102655
2017-12-21T21:46:44.739Z,102658
2017-12-21T21:49:13.072Z,102664
2017-12-21T21:51:41.307Z,102653
2017-12-21T21:54:10.303Z,102658
2017-12-21T21:56:39.362Z,102661
2017-12-21T21:59:07.484Z,102663
2017-12-21T22:01:35.641Z,102666
2017-12-21T22:04:04.541Z,102661
2017-12-21T22:06:33.548Z,102665
2017-12-21T22:09:01.824Z,102660
2017-12-21T22:11:29.916Z,102662
2017-12-21T22:13:58.125Z,102659
2017-12-21T22:16:27.110Z,102662
2017-12-21T22:18:55.303Z,102667
2017-12-21T22:21:23.416Z,102663
2017-12-21T22:23:51.760Z,102667
2017-12-21T22:26:22.703Z,102668
2017-12-21T22:28:51.629Z,102669
2017-12-21T22:31:19.739Z,102664
2017-12-21T22:33:47.865Z,102666
2017-12-21T22:36:16.094Z,102667
2017-12-21T22:38:44.661Z,102664
2017-12-21T22:41:12.861Z,102659
2017-12-21T22:43:41.066Z,102647
2017-12-21T22:46:09.915Z,102655
2017-12-21T22:48:38.094Z,102650
2017-12-21T22:51:08.901Z,102652
2017-12-21T22:53:37.007Z,102650
2017-12-21T22:56:05.232Z,102649
2017-12-21T22:58:33.344Z,102640
2017-12-21T23:01:01.599Z,102639
2017-12-21T23:03:30.639Z,102645
2017-12-21T23:10:01.919Z,102630
2017-12-21T23:12:30.897Z,102621
2017-12-21T23:14:59.049Z,102625
2017-12-21T23:17:27.227Z,102618
2017-12-21T23:19:55.400Z,102616
2017-12-21T23:22:23.598Z,102609
2017-12-21T23:24:51.699Z,102613
2017-12-21T23:27:20.358Z,102614
2017-12-21T23:29:48.639Z,102606
2017-12-21T23:32:17.532Z,102609
2017-12-21T23:34:46.549Z,102604
2017-12-21T23:37:15.571Z,102602
2017-12-21T23:39:43.716Z,102601
2017-12-21T23:42:12.123Z,102602
2017-12-21T23:44:40.356Z,102592
2017-12-21T23:47:09.368Z,102578
2017-12-21T23:49:37.963Z,102581
2017-12-21T23:52:06.072Z,102577
2017-12-21T23:54:34.329Z,102586
2017-12-21T23:57:02.616Z,102586
2017-12-21T23:59:30.687Z,102585
